createdAt,value
2018-06-09T00:00:37.601Z,26.50
2018-06-09T00:01:37.813Z,25.20
2018-06-09T00:02:37.979Z,24.30
2018-06-09T00:03:38.153Z,25.90
2018-06-09T00:04:38.358Z,25.60
2018-06-09T00:05:38.529Z,24.20
2018-06-09T00:06:38.718Z,25.90
2018-06-09T00:07:38.896Z,27.30
2018-06-09T00:08:39.084Z,30.10
2018-06-09T00:09:39.272Z,28.80
2018-06-09T00:11:00.245Z,27.50
2018-06-09T00:11:59.946Z,31.10
2018-06-09T00:13:00.155Z,35.30
2018-06-09T00:14:00.382Z,35.90
2018-06-09T00:15:00.469Z,38.00
2018-06-09T00:16:00.652Z,38.70
2018-06-09T00:17:00.824Z,39.60
2018-06-09T00:18:01.010Z,39.10
2018-06-09T00:19:01.197Z,39.40
2018-06-09T00:20:01.411Z,41.60
2018-06-09T00:21:01.562Z,40.50
2018-06-09T00:22:01.742Z,37.80
2018-06-09T00:23:01.926Z,38.70
2018-06-09T00:24:02.123Z,33.40
2018-06-09T00:25:02.292Z,36.60
2018-06-09T00:26:02.472Z,36.70
2018-06-09T00:27:02.670Z,37.00
2018-06-09T00:28:02.857Z,41.60
2018-06-09T00:29:03.044Z,38.40
2018-06-09T00:30:03.230Z,37.60
2018-06-09T00:31:03.411Z,37.20
2018-06-09T00:32:03.591Z,37.10
2018-06-09T00:33:03.810Z,34.90
2018-06-09T00:34:03.962Z,37.40
2018-06-09T00:35:04.150Z,36.00
2018-06-09T00:36:04.337Z,36.90
2018-06-09T00:37:04.523Z,35.20
2018-06-09T00:38:04.703Z,34.90
2018-06-09T00:39:04.899Z,35.90
2018-06-09T00:40:05.059Z,35.00
2018-06-09T00:41:05.252Z,34.90
2018-06-09T00:42:05.426Z,34.50
2018-06-09T00:43:05.613Z,34.60
2018-06-09T00:44:05.785Z,33.30
2018-06-09T00:45:05.972Z,32.40
2018-06-09T00:46:06.167Z,31.50
2018-06-09T00:47:06.336Z,30.30
2018-06-09T00:48:06.523Z,28.20
2018-06-09T00:49:06.710Z,29.30
2018-06-09T00:50:06.904Z,29.40
2018-06-09T00:51:07.080Z,31.20
2018-06-09T00:52:07.260Z,31.40
2018-06-09T00:53:07.444Z,32.20
2018-06-09T00:54:07.632Z,33.10
2018-06-09T00:55:07.806Z,34.30
2018-06-09T00:56:07.990Z,35.10
2018-06-09T00:57:08.180Z,34.20
2018-06-09T00:58:08.388Z,33.40
2018-06-09T00:59:08.551Z,31.50
2018-06-09T01:00:08.743Z,30.10
2018-06-09T01:01:08.929Z,31.00
2018-06-09T01:02:09.113Z,32.60
2018-06-09T01:03:09.303Z,32.70
2018-06-09T01:04:09.495Z,31.90
2018-06-09T01:05:09.671Z,32.40
2018-06-09T01:06:09.853Z,31.80
2018-06-09T01:07:10.042Z,32.30
2018-06-09T01:08:10.233Z,32.40
2018-06-09T01:09:10.433Z,32.60
2018-06-09T01:10:10.592Z,34.70
2018-06-09T01:11:10.793Z,34.90
2018-06-09T01:12:10.973Z,35.40
2018-06-09T01:13:11.160Z,35.90
2018-06-09T01:14:11.341Z,36.20
2018-06-09T01:15:11.522Z,36.60
2018-06-09T01:16:11.711Z,33.50
2018-06-09T01:17:11.899Z,35.00
2018-06-09T01:18:12.084Z,35.00
2018-06-09T01:19:12.267Z,32.00
2018-06-09T01:20:12.456Z,33.50
2018-06-09T01:21:12.685Z,33.50
2018-06-09T01:22:12.819Z,33.00
2018-06-09T01:23:13.011Z,33.10
2018-06-09T01:24:13.194Z,33.80
2018-06-09T01:25:13.395Z,31.90
2018-06-09T01:26:13.569Z,32.70
2018-06-09T01:27:13.753Z,32.90
2018-06-09T01:28:13.940Z,34.10
2018-06-09T01:29:14.120Z,34.10
2018-06-09T01:30:14.322Z,34.70
2018-06-09T01:31:14.508Z,33.40
2018-06-09T01:32:14.699Z,33.80
2018-06-09T01:33:14.881Z,33.80
2018-06-09T01:34:15.074Z,33.20
2018-06-09T01:35:15.286Z,32.10
2018-06-09T01:36:15.458Z,32.30
2018-06-09T01:37:15.627Z,33.00
2018-06-09T01:38:15.817Z,34.90
2018-06-09T01:39:16.008Z,33.60
2018-06-09T01:40:16.195Z,33.60
2018-06-09T01:41:16.375Z,34.30
2018-06-09T01:42:16.580Z,32.70
2018-06-09T01:43:16.745Z,32.40
2018-06-09T01:44:16.919Z,31.70
2018-06-09T01:45:17.106Z,32.20
2018-06-09T01:46:17.287Z,31.20
2018-06-09T01:47:17.459Z,30.10
2018-06-09T01:48:17.669Z,31.70
2018-06-09T01:49:17.853Z,30.90
2018-06-09T01:50:18.032Z,29.50
2018-06-09T01:51:18.221Z,28.80
2018-06-09T01:52:18.424Z,30.10
2018-06-09T01:53:18.588Z,28.90
2018-06-09T01:54:18.776Z,30.70
2018-06-09T01:55:18.983Z,30.70
2018-06-09T01:56:19.157Z,30.10
2018-06-09T01:57:19.310Z,29.80
2018-06-09T01:58:19.501Z,28.90
2018-06-09T01:59:19.694Z,28.70
2018-06-09T02:00:19.879Z,28.00
2018-06-09T02:01:20.062Z,28.70
2018-06-09T02:02:20.251Z,26.10
2018-06-09T02:03:20.440Z,28.50
2018-06-09T02:04:20.644Z,28.80
2018-06-09T02:05:20.811Z,28.20
2018-06-09T02:06:21.002Z,27.40
2018-06-09T02:07:21.196Z,26.00
2018-06-09T02:08:21.369Z,27.00
2018-06-09T02:09:21.557Z,27.50
2018-06-09T02:10:21.742Z,27.60
2018-06-09T02:11:21.929Z,30.40
2018-06-09T02:12:22.110Z,35.00
2018-06-09T02:13:22.320Z,35.70
2018-06-09T02:14:22.472Z,34.80
2018-06-09T02:15:22.664Z,34.40
2018-06-09T02:16:22.853Z,32.00
2018-06-09T02:17:23.045Z,31.40
2018-06-09T02:18:23.228Z,31.60
2018-06-09T02:19:23.417Z,28.50
2018-06-09T02:20:23.606Z,28.90
2018-06-09T02:21:23.800Z,31.30
2018-06-09T02:22:23.981Z,31.70
2018-06-09T02:23:24.167Z,34.20
2018-06-09T02:24:24.369Z,33.50
2018-06-09T02:25:24.532Z,33.90
2018-06-09T02:26:24.718Z,34.20
2018-06-09T02:27:24.935Z,35.40
2018-06-09T02:28:25.116Z,36.90
2018-06-09T02:29:25.269Z,37.70
2018-06-09T02:30:25.450Z,37.60
2018-06-09T02:31:25.662Z,39.10
2018-06-09T02:32:25.867Z,37.20
2018-06-09T02:33:26.034Z,33.60
2018-06-09T02:34:26.224Z,34.60
2018-06-09T02:35:26.418Z,36.10
2018-06-09T02:36:26.593Z,35.20
2018-06-09T02:37:26.783Z,35.30
2018-06-09T02:38:26.961Z,36.50
2018-06-09T02:39:27.159Z,37.20
2018-06-09T02:40:27.354Z,36.80
2018-06-09T02:41:27.544Z,39.60
2018-06-09T02:42:27.728Z,34.40
2018-06-09T02:43:27.906Z,36.80
2018-06-09T02:44:28.106Z,37.90
2018-06-09T02:45:28.279Z,41.80
2018-06-09T02:46:28.464Z,33.60
2018-06-09T02:47:28.644Z,36.50
2018-06-09T02:48:28.825Z,38.20
2018-06-09T02:49:29.007Z,39.10
2018-06-09T02:50:29.182Z,39.00
2018-06-09T02:51:29.375Z,38.80
2018-06-09T02:52:29.561Z,39.10
2018-06-09T02:53:29.770Z,38.30
2018-06-09T02:54:29.935Z,38.60
2018-06-09T02:55:30.123Z,38.50
2018-06-09T02:56:30.314Z,37.20
2018-06-09T02:57:30.480Z,36.60
2018-06-09T02:58:30.660Z,36.50
2018-06-09T02:59:30.853Z,36.40
2018-06-09T03:00:31.033Z,34.40
2018-06-09T03:01:31.212Z,36.30
2018-06-09T03:02:31.408Z,36.50
2018-06-09T03:03:31.607Z,35.30
2018-06-09T03:04:31.762Z,36.20
2018-06-09T03:05:31.943Z,35.90
2018-06-09T03:06:32.133Z,35.20
2018-06-09T03:07:32.306Z,35.80
2018-06-09T03:08:32.488Z,34.20
2018-06-09T03:09:32.671Z,32.40
2018-06-09T03:10:32.842Z,31.00
2018-06-09T03:11:33.023Z,32.30
2018-06-09T03:12:33.217Z,31.40
2018-06-09T03:13:33.385Z,32.40
2018-06-09T03:14:33.661Z,31.20
2018-06-09T03:15:33.775Z,30.40
2018-06-09T03:16:33.968Z,31.60
2018-06-09T03:17:34.145Z,31.60
2018-06-09T03:18:34.333Z,32.30
2018-06-09T03:19:34.523Z,31.10
2018-06-09T03:20:34.707Z,31.20
2018-06-09T03:21:34.889Z,31.30
2018-06-09T03:22:35.073Z,31.50
2018-06-09T03:23:35.257Z,31.40
2018-06-09T03:24:35.463Z,29.40
2018-06-09T03:25:35.635Z,30.00
2018-06-09T03:26:35.825Z,29.90
2018-06-09T03:27:36.014Z,30.20
2018-06-09T03:28:36.203Z,30.20
2018-06-09T03:29:36.410Z,32.30
2018-06-09T03:30:36.579Z,30.80
2018-06-09T03:31:36.753Z,32.40
2018-06-09T03:32:36.951Z,29.90
2018-06-09T03:33:37.115Z,31.60
2018-06-09T03:34:37.307Z,32.20
2018-06-09T03:35:37.482Z,31.20
2018-06-09T03:36:37.668Z,30.60
2018-06-09T03:37:37.857Z,32.40
2018-06-09T03:38:38.044Z,32.70
2018-06-09T03:39:38.232Z,31.70
2018-06-09T03:40:38.416Z,30.50
2018-06-09T03:41:38.600Z,29.50
2018-06-09T03:42:38.777Z,27.30
2018-06-09T03:43:38.992Z,29.00
2018-06-09T03:44:39.167Z,29.20
2018-06-09T03:45:39.335Z,29.90
2018-06-09T03:46:39.522Z,28.30
2018-06-09T03:47:39.714Z,28.00
2018-06-09T03:48:39.901Z,28.70
2018-06-09T03:49:40.097Z,29.00
2018-06-09T03:50:40.291Z,28.70
2018-06-09T03:51:40.453Z,28.00
2018-06-09T03:52:40.645Z,28.30
2018-06-09T03:53:40.827Z,27.40
2018-06-09T03:54:41.008Z,27.40
2018-06-09T03:55:41.198Z,27.60
2018-06-09T03:56:41.383Z,26.30
2018-06-09T03:57:41.569Z,26.70
2018-06-09T03:58:41.759Z,26.20
2018-06-09T03:59:41.951Z,25.30
2018-06-09T04:00:42.139Z,24.60
2018-06-09T04:01:42.324Z,24.00
2018-06-09T04:02:42.512Z,23.40
2018-06-09T04:03:42.691Z,24.40
2018-06-09T04:04:42.879Z,24.10
2018-06-09T04:05:43.084Z,23.80
2018-06-09T04:06:43.245Z,24.10
2018-06-09T04:07:43.425Z,23.90
2018-06-09T04:08:43.607Z,24.40
2018-06-09T04:09:43.790Z,23.70
2018-06-09T04:10:43.999Z,24.60
2018-06-09T04:11:44.169Z,23.60
2018-06-09T04:12:44.356Z,23.70
2018-06-09T04:13:44.531Z,23.50
2018-06-09T04:14:44.717Z,22.60
2018-06-09T04:15:44.903Z,23.30
2018-06-09T04:16:45.081Z,22.00
2018-06-09T04:17:45.265Z,22.90
2018-06-09T04:18:45.446Z,22.50
2018-06-09T04:19:45.648Z,22.40
2018-06-09T04:20:45.832Z,22.60
2018-06-09T04:21:46.018Z,22.80
2018-06-09T04:22:46.205Z,23.20
2018-06-09T04:23:46.395Z,23.50
2018-06-09T04:24:46.581Z,24.10
2018-06-09T04:25:46.769Z,24.70
2018-06-09T04:26:46.954Z,24.40
2018-06-09T04:27:47.151Z,24.50
2018-06-09T04:28:47.323Z,25.10
2018-06-09T04:29:47.507Z,24.30
2018-06-09T04:30:47.696Z,25.20
2018-06-09T04:31:47.890Z,24.80
2018-06-09T04:32:48.074Z,24.40
2018-06-09T04:33:48.258Z,24.00
2018-06-09T04:34:48.445Z,24.70
2018-06-09T04:35:48.635Z,25.10
2018-06-09T04:36:48.818Z,25.40
2018-06-09T04:37:49.004Z,25.70
2018-06-09T04:38:49.183Z,24.90
2018-06-09T04:39:49.406Z,24.60
2018-06-09T04:40:49.561Z,25.70
2018-06-09T04:41:49.748Z,26.20
2018-06-09T04:42:49.937Z,25.50
2018-06-09T04:43:50.129Z,25.90
2018-06-09T04:44:50.336Z,27.10
2018-06-09T04:45:50.489Z,27.20
2018-06-09T04:46:50.684Z,26.90
2018-06-09T04:47:50.885Z,28.60
2018-06-09T04:48:51.039Z,28.70
2018-06-09T04:49:51.232Z,27.30
2018-06-09T04:50:51.408Z,27.80
2018-06-09T04:51:51.588Z,29.00
2018-06-09T04:52:51.774Z,28.50
2018-06-09T04:53:51.966Z,27.90
2018-06-09T04:54:52.159Z,27.30
2018-06-09T04:55:52.344Z,27.60
2018-06-09T04:56:52.544Z,26.10
2018-06-09T04:57:52.717Z,26.50
2018-06-09T04:58:52.896Z,25.00
2018-06-09T04:59:53.088Z,24.40
2018-06-09T05:00:53.271Z,23.50
2018-06-09T05:01:53.470Z,24.80
2018-06-09T05:02:53.659Z,24.50
2018-06-09T05:03:53.849Z,23.50
2018-06-09T05:04:54.061Z,23.70
2018-06-09T05:05:54.229Z,23.90
2018-06-09T05:06:54.419Z,23.10
2018-06-09T05:07:54.610Z,23.30
2018-06-09T05:08:54.786Z,23.70
2018-06-09T05:09:54.978Z,22.20
2018-06-09T05:10:55.191Z,22.10
2018-06-09T05:11:55.341Z,21.40
2018-06-09T05:12:55.542Z,20.80
2018-06-09T05:13:55.705Z,20.00
2018-06-09T05:14:55.898Z,20.40
2018-06-09T05:15:56.094Z,19.60
2018-06-09T05:16:56.274Z,18.60
2018-06-09T05:17:56.488Z,18.50
2018-06-09T05:18:56.660Z,18.30
2018-06-09T05:19:56.867Z,18.70
2018-06-09T05:20:57.040Z,18.40
2018-06-09T05:21:57.236Z,18.60
2018-06-09T05:22:57.420Z,18.70
2018-06-09T05:23:57.604Z,18.80
2018-06-09T05:24:57.795Z,19.70
2018-06-09T05:25:57.977Z,19.20
2018-06-09T05:26:58.164Z,19.20
2018-06-09T05:27:58.393Z,19.10
2018-06-09T05:28:58.544Z,19.30
2018-06-09T05:29:58.726Z,19.70
2018-06-09T05:30:58.915Z,19.70
2018-06-09T05:31:59.102Z,19.30
2018-06-09T05:32:59.286Z,20.40
2018-06-09T05:33:59.471Z,20.80
2018-06-09T05:34:59.663Z,20.10
2018-06-09T05:35:59.853Z,19.70
2018-06-09T05:37:00.043Z,20.20
2018-06-09T05:38:00.229Z,19.50
2018-06-09T05:39:00.422Z,20.10
2018-06-09T05:40:00.610Z,19.90
2018-06-09T05:41:00.792Z,20.20
2018-06-09T05:42:00.974Z,20.90
2018-06-09T05:43:01.156Z,19.50
2018-06-09T05:44:01.353Z,20.30
2018-06-09T05:45:01.540Z,20.20
2018-06-09T05:46:01.728Z,19.10
2018-06-09T05:47:01.919Z,18.80
2018-06-09T05:48:02.097Z,18.50
2018-06-09T05:49:02.287Z,19.30
2018-06-09T05:50:02.500Z,19.80
2018-06-09T05:51:02.672Z,19.60
2018-06-09T05:52:02.858Z,21.10
2018-06-09T05:53:03.036Z,19.20
2018-06-09T05:54:03.261Z,18.10
2018-06-09T05:55:03.449Z,18.20
2018-06-09T05:56:03.608Z,17.90
2018-06-09T05:57:03.794Z,18.20
2018-06-09T05:58:03.965Z,18.50
2018-06-09T05:59:04.173Z,18.50
2018-06-09T06:00:04.352Z,18.10
2018-06-09T06:01:04.540Z,17.20
2018-06-09T06:02:04.733Z,17.30
2018-06-09T06:03:04.952Z,16.90
2018-06-09T06:04:05.110Z,17.70
2018-06-09T06:05:05.305Z,16.20
2018-06-09T06:06:05.496Z,16.30
2018-06-09T06:07:05.682Z,16.30
2018-06-09T06:08:05.876Z,16.70
2018-06-09T06:09:06.068Z,16.20
2018-06-09T06:10:06.252Z,16.80
2018-06-09T06:11:06.451Z,16.80
2018-06-09T06:12:06.634Z,16.70
2018-06-09T06:13:06.842Z,15.50
2018-06-09T06:14:07.019Z,15.70
2018-06-09T06:15:07.214Z,15.70
2018-06-09T06:16:07.405Z,15.20
2018-06-09T06:17:07.611Z,14.60
2018-06-09T06:18:07.820Z,15.90
2018-06-09T06:19:08.015Z,15.80
2018-06-09T06:20:08.197Z,14.80
2018-06-09T06:21:08.391Z,15.70
2018-06-09T06:22:08.584Z,15.10
2018-06-09T06:23:08.783Z,15.60
2018-06-09T06:24:08.976Z,15.00
2018-06-09T06:25:09.174Z,15.10
2018-06-09T06:26:09.361Z,14.80
2018-06-09T06:27:09.572Z,13.90
2018-06-09T06:28:09.739Z,14.70
2018-06-09T06:29:09.930Z,14.90
2018-06-09T06:30:10.120Z,14.20
2018-06-09T06:31:10.319Z,14.20
2018-06-09T06:32:10.512Z,15.00
2018-06-09T06:33:10.699Z,13.90
2018-06-09T06:34:10.892Z,14.30
2018-06-09T06:35:11.080Z,14.00
2018-06-09T06:36:11.277Z,14.20
2018-06-09T06:37:11.462Z,13.60
2018-06-09T06:38:11.656Z,13.80
2018-06-09T06:39:11.847Z,14.00
2018-06-09T06:40:12.050Z,12.30
2018-06-09T06:41:12.239Z,13.00
2018-06-09T06:42:12.422Z,13.40
2018-06-09T06:43:12.624Z,13.30
2018-06-09T06:44:12.821Z,14.40
2018-06-09T06:45:13.013Z,13.90
2018-06-09T06:46:13.202Z,14.60
2018-06-09T06:47:13.424Z,14.40
2018-06-09T06:48:13.589Z,13.30
2018-06-09T06:49:13.784Z,14.30
2018-06-09T06:50:14.024Z,14.30
2018-06-09T06:51:14.174Z,14.80
2018-06-09T06:52:14.364Z,14.10
2018-06-09T06:53:14.558Z,14.80
2018-06-09T06:54:14.750Z,13.80
2018-06-09T06:55:14.985Z,14.70
2018-06-09T06:56:15.141Z,14.20
2018-06-09T06:57:15.314Z,15.00
2018-06-09T06:58:15.509Z,12.70
2018-06-09T06:59:15.703Z,12.50
2018-06-09T07:00:15.901Z,12.40
2018-06-09T07:01:16.095Z,11.90
2018-06-09T07:02:16.334Z,12.30
2018-06-09T07:03:16.468Z,11.70
2018-06-09T07:04:16.667Z,12.60
2018-06-09T07:05:16.859Z,12.10
2018-06-09T07:06:17.053Z,11.60
2018-06-09T07:07:17.250Z,11.50
2018-06-09T07:08:17.441Z,12.70
2018-06-09T07:09:17.635Z,12.90
2018-06-09T07:10:17.822Z,12.10
2018-06-09T07:11:18.021Z,12.10
2018-06-09T07:12:18.205Z,11.90
2018-06-09T07:13:18.411Z,11.60
2018-06-09T07:14:18.605Z,11.10
2018-06-09T07:15:18.795Z,11.80
2018-06-09T07:16:18.997Z,11.00
2018-06-09T07:17:19.202Z,11.10
2018-06-09T07:18:19.435Z,10.70
2018-06-09T07:19:19.599Z,10.60
2018-06-09T07:20:19.812Z,10.90
2018-06-09T07:21:19.996Z,10.00
2018-06-09T07:22:20.187Z,10.40
2018-06-09T07:23:20.382Z,10.80
2018-06-09T07:24:20.576Z,10.30
2018-06-09T07:25:20.775Z,10.50
2018-06-09T07:26:20.966Z,9.90
2018-06-09T07:27:21.166Z,9.80
2018-06-09T07:28:21.352Z,9.80
2018-06-09T07:29:21.555Z,9.80
2018-06-09T07:30:21.760Z,8.60
2018-06-09T07:31:21.918Z,9.60
2018-06-09T07:32:22.134Z,8.60
2018-06-09T07:33:22.311Z,9.80
2018-06-09T07:34:22.510Z,9.20
2018-06-09T07:35:22.731Z,9.90
2018-06-09T07:36:22.861Z,9.80
2018-06-09T07:37:23.049Z,10.00
2018-06-09T07:38:23.207Z,9.30
2018-06-09T07:39:23.395Z,9.10
2018-06-09T07:40:23.593Z,9.60
2018-06-09T07:41:23.802Z,9.60
2018-06-09T07:42:23.966Z,9.00
2018-06-09T07:43:24.171Z,9.20
2018-06-09T07:44:24.349Z,8.90
2018-06-09T07:45:24.522Z,9.10
2018-06-09T07:46:24.721Z,9.20
2018-06-09T07:47:24.893Z,8.50
2018-06-09T07:48:25.090Z,9.00
2018-06-09T07:49:25.266Z,8.50
2018-06-09T07:50:25.497Z,9.10
2018-06-09T07:51:25.646Z,9.70
2018-06-09T07:52:25.846Z,8.90
2018-06-09T07:53:26.027Z,8.80
2018-06-09T07:54:26.230Z,8.70
2018-06-09T07:55:26.431Z,9.00
2018-06-09T07:56:26.630Z,9.10
2018-06-09T07:57:26.828Z,8.60
2018-06-09T07:58:27.035Z,8.40
2018-06-09T07:59:27.221Z,8.80
2018-06-09T08:00:27.397Z,8.90
2018-06-09T08:01:27.588Z,9.00
2018-06-09T08:02:27.807Z,8.40
2018-06-09T08:03:28.015Z,7.60
2018-06-09T08:04:28.214Z,7.70
2018-06-09T08:05:28.379Z,8.20
2018-06-09T08:06:28.578Z,8.00
2018-06-09T08:07:28.772Z,8.40
2018-06-09T08:08:28.972Z,7.90
2018-06-09T08:09:29.148Z,7.50
2018-06-09T08:10:29.365Z,7.80
2018-06-09T08:11:29.535Z,8.00
2018-06-09T08:12:29.737Z,8.10
2018-06-09T08:13:29.921Z,7.90
2018-06-09T08:14:30.131Z,7.40
2018-06-09T08:15:30.341Z,7.60
2018-06-09T08:16:30.508Z,7.70
2018-06-09T08:17:30.721Z,7.40
2018-06-09T08:18:30.908Z,7.50
2018-06-09T08:19:31.127Z,7.20
2018-06-09T08:20:31.266Z,6.90
2018-06-09T08:21:31.490Z,7.20
2018-06-09T08:22:31.665Z,6.80
2018-06-09T08:23:31.872Z,7.20
2018-06-09T08:24:32.097Z,7.40
2018-06-09T08:25:32.271Z,7.10
2018-06-09T08:26:32.431Z,7.30
2018-06-09T08:27:32.643Z,7.00
2018-06-09T08:28:32.817Z,7.00
2018-06-09T08:29:33.009Z,6.80
2018-06-09T08:30:33.287Z,7.00
2018-06-09T08:31:33.411Z,7.00
2018-06-09T08:32:33.605Z,7.20
2018-06-09T08:33:33.820Z,7.00
2018-06-09T08:34:33.997Z,7.40
2018-06-09T08:35:34.193Z,7.30
2018-06-09T08:36:34.393Z,6.90
2018-06-09T08:37:34.593Z,6.70
2018-06-09T08:38:34.786Z,7.00
2018-06-09T08:39:35.017Z,7.20
2018-06-09T08:40:35.180Z,6.90
2018-06-09T08:41:35.383Z,7.50
2018-06-09T08:42:35.580Z,6.70
2018-06-09T08:43:35.781Z,7.00
2018-06-09T08:44:35.975Z,7.40
2018-06-09T08:45:36.177Z,6.90
2018-06-09T08:46:36.375Z,7.00
2018-06-09T08:47:36.570Z,6.90
2018-06-09T08:48:36.795Z,6.60
2018-06-09T08:49:36.979Z,7.50
2018-06-09T08:50:37.123Z,7.30
2018-06-09T08:51:37.324Z,6.80
2018-06-09T08:52:37.530Z,7.00
2018-06-09T08:53:37.755Z,6.60
2018-06-09T08:54:37.972Z,6.90
2018-06-09T08:55:38.107Z,6.70
2018-06-09T08:56:38.299Z,6.80
2018-06-09T08:57:38.494Z,6.80
2018-06-09T08:58:38.709Z,6.50
2018-06-09T09:00:24.309Z,5.60
2018-06-09T09:01:24.432Z,6.40
2018-06-09T09:02:24.627Z,6.40
2018-06-09T09:03:24.894Z,6.10
2018-06-09T09:04:25.084Z,6.40
2018-06-09T09:05:25.241Z,6.20
2018-06-09T09:06:25.379Z,6.40
2018-06-09T09:07:25.594Z,6.20
2018-06-09T09:08:25.805Z,6.60
2018-06-09T09:09:25.994Z,6.40
2018-06-09T09:10:26.185Z,6.20
2018-06-09T09:11:26.381Z,6.50
2018-06-09T09:12:26.576Z,6.10
2018-06-09T09:13:26.779Z,7.10
2018-06-09T09:14:27.034Z,6.30
2018-06-09T09:15:27.141Z,6.40
2018-06-09T09:16:27.397Z,6.90
2018-06-09T09:17:27.562Z,7.00
2018-06-09T09:18:27.734Z,6.40
2018-06-09T09:19:27.938Z,6.40
2018-06-09T09:20:28.143Z,7.00
2018-06-09T09:21:28.320Z,6.50
2018-06-09T09:22:28.515Z,6.80
2018-06-09T09:23:28.706Z,6.60
2018-06-09T09:24:28.902Z,6.80
2018-06-09T09:25:29.127Z,6.60
2018-06-09T09:26:29.289Z,6.50
2018-06-09T09:27:29.528Z,6.90
2018-06-09T09:28:29.711Z,6.80
2018-06-09T09:29:29.926Z,6.80
2018-06-09T09:30:30.110Z,7.00
2018-06-09T09:31:30.292Z,6.80
2018-06-09T09:32:30.481Z,6.50
2018-06-09T09:33:30.675Z,6.70
2018-06-09T09:34:30.883Z,6.60
2018-06-09T09:35:31.046Z,6.70
2018-06-09T09:36:31.274Z,6.60
2018-06-09T09:37:31.442Z,6.90
2018-06-09T09:38:31.636Z,6.50
2018-06-09T09:39:31.833Z,6.00
2018-06-09T09:40:32.025Z,6.20
2018-06-09T09:41:32.222Z,6.20
2018-06-09T09:42:32.419Z,6.40
2018-06-09T09:43:32.618Z,7.00
2018-06-09T09:44:32.811Z,6.30
2018-06-09T09:45:33.019Z,6.60
2018-06-09T09:46:33.232Z,6.80
2018-06-09T09:47:33.411Z,7.00
2018-06-09T09:48:33.606Z,6.70
2018-06-09T09:49:33.793Z,6.60
2018-06-09T09:50:33.986Z,6.70
2018-06-09T09:51:34.186Z,6.80
2018-06-09T09:52:34.390Z,7.20
2018-06-09T09:53:34.569Z,6.30
2018-06-09T09:54:34.769Z,6.20
2018-06-09T09:55:35.662Z,6.20
2018-06-09T09:56:35.111Z,6.90
2018-06-09T09:57:35.308Z,6.90
2018-06-09T09:58:35.509Z,7.00
2018-06-09T09:59:35.714Z,7.10
2018-06-09T10:00:35.929Z,6.70
2018-06-09T10:01:36.087Z,6.80
2018-06-09T10:02:36.291Z,6.70
2018-06-09T10:03:36.512Z,6.80
2018-06-09T10:04:36.729Z,6.70
2018-06-09T10:05:36.861Z,7.10
2018-06-09T10:06:37.052Z,6.60
2018-06-09T10:07:37.250Z,6.60
2018-06-09T10:08:37.448Z,6.40
2018-06-09T10:09:37.647Z,6.70
2018-06-09T10:10:37.843Z,6.30
2018-06-09T10:11:38.046Z,6.90
2018-06-09T10:12:38.252Z,7.30
2018-06-09T10:13:38.425Z,6.40
2018-06-09T10:14:38.636Z,6.20
2018-06-09T10:15:38.825Z,6.40
2018-06-09T10:16:39.032Z,6.70
2018-06-09T10:17:39.206Z,6.50
2018-06-09T10:18:39.378Z,6.40
2018-06-09T10:19:39.576Z,6.00
2018-06-09T10:20:39.807Z,6.60
2018-06-09T10:21:40.003Z,6.60
2018-06-09T10:22:40.198Z,6.20
2018-06-09T10:23:40.377Z,6.60
2018-06-09T10:24:40.567Z,6.10
2018-06-09T10:25:40.762Z,6.20
2018-06-09T10:26:40.961Z,6.70
2018-06-09T10:27:41.157Z,6.90
2018-06-09T10:28:41.385Z,6.20
2018-06-09T10:29:41.529Z,6.30
2018-06-09T10:30:41.731Z,6.10
2018-06-09T10:31:41.917Z,6.50
2018-06-09T10:32:42.201Z,6.10
2018-06-09T10:33:42.326Z,6.70
2018-06-09T10:34:42.503Z,6.50
2018-06-09T10:35:42.689Z,6.10
2018-06-09T10:36:42.887Z,6.20
2018-06-09T10:37:43.079Z,6.40
2018-06-09T10:38:43.273Z,6.50
2018-06-09T10:39:43.517Z,6.30
2018-06-09T10:40:43.677Z,6.50
2018-06-09T10:41:43.841Z,6.70
2018-06-09T10:42:44.025Z,6.50
2018-06-09T10:43:44.224Z,6.30
2018-06-09T10:44:44.429Z,6.00
2018-06-09T10:45:44.619Z,6.40
2018-06-09T10:46:44.796Z,6.40
2018-06-09T10:47:44.989Z,6.50
2018-06-09T10:48:45.218Z,6.60
2018-06-09T10:49:45.372Z,7.00
2018-06-09T10:50:45.586Z,6.90
2018-06-09T10:51:45.760Z,6.80
2018-06-09T10:52:45.958Z,6.60
2018-06-09T10:53:46.145Z,6.50
2018-06-09T10:54:46.348Z,6.50
2018-06-09T10:55:46.556Z,6.60
2018-06-09T10:56:46.717Z,6.50
2018-06-09T10:57:46.927Z,6.40
2018-06-09T10:58:47.097Z,6.30
2018-06-09T10:59:47.293Z,6.20
2018-06-09T11:00:47.491Z,6.40
2018-06-09T11:01:47.692Z,6.40
2018-06-09T11:02:47.894Z,6.30
2018-06-09T11:03:48.095Z,6.70
2018-06-09T11:04:48.281Z,6.50
2018-06-09T11:05:48.479Z,6.40
2018-06-09T11:06:48.699Z,6.00
2018-06-09T11:07:48.913Z,6.70
2018-06-09T11:08:49.045Z,6.80
2018-06-09T11:09:49.273Z,6.50
2018-06-09T11:10:49.419Z,6.70
2018-06-09T11:11:49.624Z,6.70
2018-06-09T11:12:49.820Z,6.70
2018-06-09T11:13:50.003Z,6.20
2018-06-09T11:14:50.201Z,6.70
2018-06-09T11:15:50.444Z,6.30
2018-06-09T11:16:50.588Z,6.00
2018-06-09T11:17:50.780Z,5.90
2018-06-09T11:18:50.999Z,5.90
2018-06-09T11:19:51.176Z,5.80
2018-06-09T11:20:51.376Z,6.60
2018-06-09T11:21:51.571Z,6.50
2018-06-09T11:22:51.772Z,6.10
2018-06-09T11:23:51.964Z,6.40
2018-06-09T11:24:52.181Z,6.40
2018-06-09T11:25:52.352Z,6.20
2018-06-09T11:26:52.570Z,6.10
2018-06-09T11:27:52.768Z,6.30
2018-06-09T11:28:52.973Z,6.10
2018-06-09T11:29:53.131Z,6.30
2018-06-09T11:30:53.333Z,6.50
2018-06-09T11:31:53.524Z,6.80
2018-06-09T11:32:53.715Z,6.60
2018-06-09T11:33:53.906Z,6.30
2018-06-09T11:34:54.120Z,6.00
2018-06-09T11:35:54.305Z,5.60
2018-06-09T11:36:54.509Z,5.80
2018-06-09T11:37:54.734Z,5.90
2018-06-09T11:38:54.927Z,6.10
2018-06-09T11:39:55.153Z,5.90
2018-06-09T11:40:55.308Z,5.70
2018-06-09T11:41:55.500Z,6.10
2018-06-09T11:42:55.721Z,5.80
2018-06-09T11:43:55.889Z,6.10
2018-06-09T11:44:56.071Z,6.10
2018-06-09T11:45:56.264Z,6.10
2018-06-09T11:46:56.492Z,6.00
2018-06-09T11:47:56.633Z,6.10
2018-06-09T11:48:56.828Z,6.00
2018-06-09T11:49:57.073Z,6.00
2018-06-09T11:50:57.235Z,6.40
2018-06-09T11:51:57.409Z,6.20
2018-06-09T11:52:57.606Z,6.20
2018-06-09T11:53:57.796Z,5.80
2018-06-09T11:54:58.007Z,6.10
2018-06-09T11:55:58.198Z,6.70
2018-06-09T11:56:58.371Z,6.10
2018-06-09T11:57:58.548Z,6.10
2018-06-09T11:58:58.757Z,6.20
2018-06-09T11:59:58.937Z,6.10
2018-06-09T12:00:59.140Z,6.30
2018-06-09T12:01:59.354Z,6.00
2018-06-09T12:02:59.594Z,6.50
2018-06-09T12:03:59.732Z,6.20
2018-06-09T12:05:00.006Z,6.30
2018-06-09T12:06:00.132Z,6.30
2018-06-09T12:07:00.337Z,6.10
2018-06-09T12:08:00.536Z,6.00
2018-06-09T12:09:00.723Z,6.00
2018-06-09T12:10:00.915Z,5.70
2018-06-09T12:11:01.156Z,5.90
2018-06-09T12:12:01.328Z,6.10
2018-06-09T12:13:01.508Z,6.40
2018-06-09T12:14:01.705Z,6.70
2018-06-09T12:15:01.907Z,6.10
2018-06-09T12:16:02.090Z,5.90
2018-06-09T12:17:02.315Z,5.80
2018-06-09T12:18:02.465Z,5.60
2018-06-09T12:19:02.655Z,5.80
2018-06-09T12:20:02.845Z,6.00
2018-06-09T12:21:03.048Z,5.60
2018-06-09T12:22:03.261Z,6.00
2018-06-09T12:23:03.427Z,6.20
2018-06-09T12:24:03.619Z,6.40
2018-06-09T12:25:03.828Z,5.80
2018-06-09T12:26:04.009Z,6.10
2018-06-09T12:27:04.215Z,6.20
2018-06-09T12:28:04.394Z,6.00
2018-06-09T12:29:04.579Z,5.90
2018-06-09T12:30:04.773Z,6.20
2018-06-09T12:31:04.979Z,5.90
2018-06-09T12:32:05.180Z,6.20
2018-06-09T12:33:05.407Z,5.90
2018-06-09T12:34:05.555Z,5.70
2018-06-09T12:35:05.742Z,5.90
2018-06-09T12:36:05.939Z,5.90
2018-06-09T12:37:06.130Z,5.70
2018-06-09T12:38:06.339Z,5.90
2018-06-09T12:39:06.530Z,5.70
2018-06-09T12:40:06.705Z,5.80
2018-06-09T12:41:06.900Z,5.40
2018-06-09T12:42:07.101Z,6.60
2018-06-09T12:43:07.285Z,6.30
2018-06-09T12:44:07.479Z,5.50
2018-06-09T12:45:07.673Z,5.60
2018-06-09T12:46:07.867Z,6.00
2018-06-09T12:47:08.064Z,6.00
2018-06-09T12:48:08.265Z,5.80
2018-06-09T12:49:08.457Z,5.60
2018-06-09T12:50:08.647Z,5.90
2018-06-09T12:51:08.847Z,5.70
2018-06-09T12:52:09.025Z,5.80
2018-06-09T12:53:09.218Z,5.80
2018-06-09T12:54:09.413Z,6.00
2018-06-09T12:55:09.605Z,5.70
2018-06-09T12:56:09.808Z,5.70
2018-06-09T12:57:09.985Z,5.80
2018-06-09T12:58:10.186Z,5.60
2018-06-09T12:59:10.369Z,5.60
2018-06-09T13:00:10.560Z,5.70
2018-06-09T13:01:10.755Z,5.60
2018-06-09T13:02:10.952Z,6.00
2018-06-09T13:03:11.148Z,5.70
2018-06-09T13:04:11.346Z,5.20
2018-06-09T13:05:12.262Z,6.20
2018-06-09T13:06:11.734Z,5.90
2018-06-09T13:07:11.931Z,5.90